Terminal Aerodrome Forecast
Issued by NWS

Home | Current Version | Previous Version | Graphics & Text | Print | Product List | Glossary On
Versions: 1 2 3 4 5 6 7 8 9 10 11 12 13 14 15
000
FTUS43 KMPX 251139
TAFAXN
TAF
KAXN 251139Z 2512/2612 03005KT 6SM -RA BR OVC006
     FM251800 01008KT 4SM -RA BR BKN008 OVC015
     FM252200 34005KT 6SM BR SCT015 BKN025
     FM260000 36003KT 6SM BR OVC012
     FM260300 01003KT 4SM BR OVC008
     FM260600 01004KT 2SM BR OVC004=

USA.gov is the U.S. government's official web portal to all federal, state and local government web resources and services.